MMZH/ZIH METAR and TAF weather

Enter ICAO airport designator
Station Type Date Time Source
MMZH METAR 2021/07/27 20:41 UTC NOAA

MMZH 272041Z 20010KT 7SM SCT020CB SCT250 33/25 A2991 RMK SLP120 57013 914 8/302 HZY


Station Type Date Time Source
MMZH Decoded METAR 2021/07/27 20:41 UTC NOAA

Ixtapa-Zihuatanejo, Mexico (MMZH) 17-36N 101-28W
Jul 27, 2021 - 04:41 PM EDT / 2021.07.27 2041 UTC
Wind: from the SSW (200 degrees) at 12 MPH (10 KT):0
Visibility: 7 mile(s):0
Sky conditions: partly cloudy
Weather: Cumulonimbus clouds observed
Temperature: 91 F (33 C)
Heat index: 103.5 F (39.7 C):1
Dew Point: 77 F (25 C)
Relative Humidity: 62%
Pressure (altimeter): 29.91 in. Hg (1012 hPa)
Pressure tendency: 0.04 inches (1.3 hPa) lower than three hours ago
ob: MMZH 272041Z 20010KT 7SM SCT020CB SCT250 33/25 A2991 RMK SLP120 57013 914 8/302 HZY
cycle: 20

Station Type Date Time Source
MMZH TAF 2021/07/27 18:57 UTC NOAA

TAF COR TAF COR MMZH 271954Z 2718/2818 22015KT P6SM SCT020CB BKN120
FM272300 25015KT P6SM BKN020CB OVC100
TEMPO 2800/2804 3SM TSRA
BECMG 2805/2806 30010KT
TEMPO 2805/2809 5SM TSRA
FM281400 00000KT P6SM SCT020 BKN240

Example: see airport list